createdAt,value
2022-12-04T00:01:19.402Z,86.40
2022-12-04T00:03:47.213Z,86.02
2022-12-04T00:06:20.551Z,85.78
2022-12-04T00:08:48.819Z,85.88
2022-12-04T00:11:19.085Z,85.29
2022-12-04T00:13:46.486Z,85.55
2022-12-04T00:16:16.640Z,85.20
2022-12-04T00:18:44.001Z,85.07
2022-12-04T00:21:13.804Z,85.08
2022-12-04T00:23:42.493Z,84.86
2022-12-04T00:26:16.340Z,85.18
2022-12-04T00:28:44.362Z,84.70
2022-12-04T00:31:17.477Z,84.95
2022-12-04T00:33:45.878Z,85.20
2022-12-04T00:36:15.461Z,84.74
2022-12-04T00:38:44.137Z,84.98
2022-12-04T00:41:13.779Z,84.92
2022-12-04T00:43:41.799Z,85.01
2022-12-04T00:46:09.436Z,84.31
2022-12-04T00:48:37.060Z,84.04
2022-12-04T00:51:16.217Z,84.06
2022-12-04T00:53:44.184Z,84.30
2022-12-04T00:56:18.707Z,82.92
2022-12-04T00:58:46.832Z,82.93
2022-12-04T01:01:19.472Z,83.25
2022-12-04T01:03:52.274Z,83.44
2022-12-04T01:06:25.329Z,83.10
2022-12-04T01:08:54.570Z,83.68
2022-12-04T01:11:24.438Z,82.87
2022-12-04T01:13:52.054Z,83.13
2022-12-04T01:16:21.518Z,82.33
2022-12-04T01:18:51.464Z,82.70
2022-12-04T01:21:19.010Z,82.69
2022-12-04T01:23:46.825Z,82.69
2022-12-04T01:26:14.425Z,82.42
2022-12-04T01:28:41.992Z,82.55
2022-12-04T01:31:16.922Z,82.37
2022-12-04T01:33:45.118Z,82.35
2022-12-04T01:36:19.066Z,82.71
2022-12-04T01:38:47.772Z,82.83
2022-12-04T01:41:17.484Z,82.81
2022-12-04T01:43:45.498Z,83.31
2022-12-04T01:46:12.591Z,83.28
2022-12-04T01:48:50.545Z,83.38
2022-12-04T01:51:27.590Z,83.23
2022-12-04T01:54:11.847Z,83.40
2022-12-04T01:56:45.552Z,83.12
2022-12-04T01:59:16.472Z,83.35
2022-12-04T02:01:52.687Z,83.57
2022-12-04T02:04:20.353Z,83.53
2022-12-04T02:06:47.588Z,83.84
2022-12-04T02:09:15.178Z,83.48
2022-12-04T02:12:02.097Z,83.92
2022-12-04T02:14:48.222Z,83.82
2022-12-04T02:17:19.393Z,83.54
2022-12-04T02:20:04.972Z,83.37
2022-12-04T02:23:09.408Z,83.26
2022-12-04T02:26:02.089Z,83.11
2022-12-04T02:28:42.330Z,83.19
2022-12-04T02:31:16.914Z,83.15
2022-12-04T02:33:57.384Z,83.47
2022-12-04T02:36:29.369Z,83.38
2022-12-04T02:39:07.332Z,83.25
2022-12-04T02:41:48.102Z,83.71
2022-12-04T02:44:21.837Z,83.64
2022-12-04T02:46:54.361Z,83.50
2022-12-04T02:49:32.211Z,82.98
2022-12-04T02:52:01.589Z,83.29
2022-12-04T02:54:43.863Z,83.88
2022-12-04T02:57:15.302Z,83.43
2022-12-04T02:59:45.628Z,83.73
2022-12-04T03:02:22.180Z,83.54
2022-12-04T03:04:53.616Z,83.50
2022-12-04T03:07:27.790Z,83.90
2022-12-04T03:10:00.669Z,83.26
2022-12-04T03:12:39.026Z,83.17
2022-12-04T03:15:12.410Z,83.51
2022-12-04T03:17:50.304Z,83.45
2022-12-04T03:20:18.076Z,83.56
2022-12-04T03:22:50.777Z,83.55
2022-12-04T03:25:18.100Z,83.21
2022-12-04T03:28:01.001Z,83.74
2022-12-04T03:30:30.712Z,84.01
2022-12-04T03:33:13.723Z,84.13
2022-12-04T03:35:50.025Z,83.80
2022-12-04T03:38:41.322Z,84.21
2022-12-04T03:41:37.411Z,84.12
2022-12-04T03:44:12.533Z,83.61
2022-12-04T03:47:02.713Z,84.26
2022-12-04T03:49:53.248Z,84.24
2022-12-04T03:52:42.200Z,83.42
2022-12-04T03:55:40.051Z,83.75
2022-12-04T03:58:13.802Z,83.52
2022-12-04T04:00:43.996Z,83.94
2022-12-04T04:03:22.894Z,83.37
2022-12-04T04:05:57.078Z,83.75
2022-12-04T04:08:27.799Z,82.83
2022-12-04T04:11:07.628Z,83.10
2022-12-04T04:14:15.298Z,82.85
2022-12-04T04:17:06.765Z,82.68
2022-12-04T04:19:54.757Z,82.83
2022-12-04T04:22:43.716Z,82.62
2022-12-04T04:25:14.797Z,83.17
2022-12-04T04:27:42.552Z,83.57
2022-12-04T04:30:10.112Z,83.03
2022-12-04T04:33:03.110Z,83.15
2022-12-04T04:35:52.787Z,83.23
2022-12-04T04:38:27.876Z,83.16
2022-12-04T04:41:04.365Z,83.70
2022-12-04T04:43:48.300Z,83.48
2022-12-04T04:46:23.218Z,83.12
2022-12-04T04:48:58.739Z,83.61
2022-12-04T04:51:27.686Z,83.40
2022-12-04T04:53:58.949Z,84.09
2022-12-04T04:56:25.991Z,83.61
2022-12-04T04:58:53.285Z,83.08
2022-12-04T05:01:24.544Z,83.48
2022-12-04T05:03:52.159Z,84.03
2022-12-04T05:06:19.277Z,83.78
2022-12-04T05:08:49.780Z,83.94
2022-12-04T05:11:17.704Z,83.93
2022-12-04T05:13:45.141Z,84.11
2022-12-04T05:16:14.634Z,84.18
2022-12-04T05:19:05.959Z,84.50
2022-12-04T05:21:35.297Z,84.03
2022-12-04T05:24:03.014Z,84.63
2022-12-04T05:26:32.423Z,84.86
2022-12-04T05:29:01.238Z,84.59
2022-12-04T05:31:29.368Z,84.51
2022-12-04T05:33:57.382Z,85.03
2022-12-04T05:36:24.462Z,84.95
2022-12-04T05:38:52.251Z,84.75
2022-12-04T05:41:23.349Z,84.89
2022-12-04T05:44:05.328Z,84.81
2022-12-04T05:46:33.865Z,85.05
2022-12-04T05:49:01.085Z,85.01
2022-12-04T05:51:30.707Z,84.82
2022-12-04T05:53:59.352Z,84.91
2022-12-04T05:56:31.271Z,84.85
2022-12-04T05:58:59.627Z,85.27
2022-12-04T06:01:31.601Z,85.71
2022-12-04T06:03:58.892Z,86.17
2022-12-04T06:06:27.476Z,85.74
2022-12-04T06:08:57.646Z,85.81
2022-12-04T06:15:07.797Z,85.29
2022-12-04T06:17:35.928Z,85.33
2022-12-04T06:20:07.941Z,85.90
2022-12-04T06:22:38.813Z,85.82
2022-12-04T06:25:08.044Z,86.19
2022-12-04T06:27:36.880Z,86.38
2022-12-04T06:30:04.389Z,86.19
2022-12-04T06:32:36.546Z,86.05
2022-12-04T06:35:04.391Z,86.57
2022-12-04T06:37:32.271Z,86.44
2022-12-04T06:39:59.850Z,86.15
2022-12-04T06:42:28.293Z,86.10
2022-12-04T06:44:56.758Z,86.39
2022-12-04T06:47:24.273Z,86.57
2022-12-04T06:49:51.740Z,86.66
2022-12-04T06:52:32.910Z,87.07
2022-12-04T06:58:09.549Z,86.66
2022-12-04T07:00:36.740Z,87.10
2022-12-04T07:03:04.668Z,86.61
2022-12-04T07:05:31.704Z,87.28
2022-12-04T07:07:59.385Z,86.93
2022-12-04T07:10:26.637Z,87.16
2022-12-04T07:12:56.620Z,87.25
2022-12-04T07:15:23.462Z,87.70
2022-12-04T07:17:53.458Z,87.87
2022-12-04T07:20:20.563Z,87.75
2022-12-04T07:22:51.016Z,87.86
2022-12-04T07:25:18.317Z,87.76
2022-12-04T07:27:55.967Z,87.50
2022-12-04T07:30:23.311Z,87.91
2022-12-04T07:32:50.691Z,87.88
2022-12-04T07:35:17.791Z,87.99
2022-12-04T07:37:45.197Z,87.65
2022-12-04T07:40:13.212Z,87.77
2022-12-04T07:42:41.302Z,87.80
2022-12-04T07:45:09.137Z,87.13
2022-12-04T07:47:36.924Z,87.51
2022-12-04T07:50:05.382Z,86.67
2022-12-04T07:52:42.212Z,87.07
2022-12-04T07:55:11.221Z,87.25
2022-12-04T07:57:40.300Z,87.21
2022-12-04T08:00:08.025Z,87.28
2022-12-04T08:02:37.696Z,86.46
2022-12-04T08:05:05.013Z,85.86
2022-12-04T08:07:33.634Z,86.32
2022-12-04T08:10:01.703Z,86.21
2022-12-04T08:12:34.113Z,86.75
2022-12-04T08:15:02.775Z,86.59
2022-12-04T08:17:42.609Z,85.91
2022-12-04T08:20:15.065Z,85.80
2022-12-04T08:22:45.165Z,86.51
2022-12-04T08:25:12.109Z,86.00
2022-12-04T08:27:42.027Z,86.68
2022-12-04T08:30:16.025Z,86.65
2022-12-04T08:32:45.318Z,86.54
2022-12-04T08:35:15.054Z,86.67
2022-12-04T08:37:42.955Z,86.44
2022-12-04T08:40:17.170Z,86.64
2022-12-04T08:42:48.766Z,86.75
2022-12-04T08:45:26.670Z,86.68
2022-12-04T08:48:08.641Z,86.94
2022-12-04T08:50:45.018Z,86.71
2022-12-04T08:53:20.465Z,86.70
2022-12-04T08:55:48.317Z,86.52
2022-12-04T08:58:22.011Z,86.24
2022-12-04T09:00:49.258Z,86.22
2022-12-04T09:03:19.437Z,86.08
2022-12-04T09:05:46.999Z,86.19
2022-12-04T09:08:16.951Z,87.12
2022-12-04T09:10:44.634Z,86.30
2022-12-04T09:13:13.647Z,86.39
2022-12-04T09:15:42.175Z,86.68
2022-12-04T09:18:13.444Z,86.50
2022-12-04T09:20:42.362Z,86.68
2022-12-04T09:23:09.982Z,86.35
2022-12-04T09:25:38.311Z,86.46
2022-12-04T09:28:08.818Z,86.71
2022-12-04T09:30:38.156Z,86.38
2022-12-04T09:33:05.918Z,87.06
2022-12-04T09:35:35.953Z,87.22
2022-12-04T09:38:09.680Z,87.06
2022-12-04T09:40:55.203Z,87.78
2022-12-04T09:43:56.707Z,87.80
2022-12-04T09:46:37.798Z,87.44
2022-12-04T09:49:21.600Z,87.60
2022-12-04T09:51:53.432Z,87.34
2022-12-04T09:54:35.182Z,87.37
2022-12-04T09:57:31.072Z,87.29
2022-12-04T09:59:59.450Z,87.35
2022-12-04T10:02:37.688Z,86.74
2022-12-04T10:05:15.441Z,87.03
2022-12-04T10:08:04.829Z,86.56
2022-12-04T10:10:46.505Z,86.67
2022-12-04T10:13:47.905Z,86.82
2022-12-04T10:16:27.002Z,86.94
2022-12-04T10:19:02.028Z,86.36
2022-12-04T10:22:10.755Z,85.86
2022-12-04T10:24:56.291Z,86.27
2022-12-04T10:27:33.834Z,86.26
2022-12-04T10:30:08.016Z,86.69
2022-12-04T10:32:36.553Z,86.57
2022-12-04T10:35:38.647Z,86.91
2022-12-04T10:38:52.838Z,86.23
2022-12-04T10:41:44.741Z,86.61
2022-12-04T10:44:23.079Z,86.86
2022-12-04T10:46:53.589Z,87.41
2022-12-04T10:49:28.403Z,87.88
2022-12-04T10:51:56.569Z,87.49
2022-12-04T10:54:50.506Z,87.26
2022-12-04T10:57:18.132Z,86.76
2022-12-04T10:59:56.258Z,86.83
2022-12-04T11:02:30.914Z,87.67
2022-12-04T11:05:08.317Z,87.06
2022-12-04T11:07:54.662Z,86.60
2022-12-04T11:10:39.437Z,86.86
2022-12-04T11:13:22.350Z,87.13
2022-12-04T11:15:56.099Z,87.84
2022-12-04T11:18:28.877Z,87.59
2022-12-04T11:21:28.695Z,88.11
2022-12-04T11:23:58.271Z,87.25
2022-12-04T11:26:47.885Z,88.97
2022-12-04T11:29:20.443Z,88.52
2022-12-04T11:31:51.308Z,88.14
2022-12-04T11:34:25.302Z,87.27
2022-12-04T11:36:56.458Z,86.58
2022-12-04T11:39:40.991Z,86.09
2022-12-04T11:42:30.075Z,86.43
2022-12-04T11:45:18.586Z,85.60
2022-12-04T11:47:57.999Z,85.41
2022-12-04T11:50:59.566Z,85.36
2022-12-04T11:53:48.466Z,84.49
2022-12-04T11:56:19.319Z,84.25
2022-12-04T11:59:19.243Z,85.04
2022-12-04T12:02:12.187Z,84.62
2022-12-04T12:04:45.114Z,85.08
2022-12-04T12:07:32.689Z,84.95
2022-12-04T12:10:23.275Z,85.25
2022-12-04T12:13:31.989Z,85.15
2022-12-04T12:16:12.437Z,86.13
2022-12-04T12:18:52.896Z,86.07
2022-12-04T12:21:33.585Z,86.93
2022-12-04T12:24:19.236Z,86.93
2022-12-04T12:26:55.302Z,86.74
2022-12-04T12:29:49.709Z,86.59
2022-12-04T12:32:23.698Z,87.09
2022-12-04T12:34:51.594Z,86.85
2022-12-04T12:37:47.260Z,88.05
2022-12-04T12:40:16.490Z,87.77
2022-12-04T12:42:58.429Z,87.50
2022-12-04T12:45:47.521Z,87.87
2022-12-04T12:48:34.044Z,87.52
2022-12-04T12:51:30.824Z,87.93
2022-12-04T12:54:17.447Z,88.33
2022-12-04T12:56:50.924Z,88.05
2022-12-04T12:59:25.431Z,87.80
2022-12-04T13:02:02.549Z,87.85
2022-12-04T13:04:48.247Z,88.05
2022-12-04T13:07:26.260Z,87.72
2022-12-04T13:09:54.786Z,87.82
2022-12-04T13:12:23.917Z,88.17
2022-12-04T13:14:51.353Z,87.95
2022-12-04T13:17:36.393Z,87.44
2022-12-04T13:20:11.854Z,87.63
2022-12-04T13:23:23.410Z,87.43
2022-12-04T13:26:31.337Z,87.52
2022-12-04T13:29:10.857Z,88.69
2022-12-04T13:32:03.960Z,89.06
2022-12-04T13:34:58.874Z,88.42
2022-12-04T13:37:47.647Z,88.01
2022-12-04T13:40:18.094Z,87.98
2022-12-04T13:42:50.491Z,87.82
2022-12-04T13:45:35.859Z,88.46
2022-12-04T13:48:04.077Z,88.20
2022-12-04T13:50:34.460Z,88.35
2022-12-04T13:53:05.293Z,88.16
2022-12-04T13:55:35.282Z,87.33
2022-12-04T13:58:11.919Z,87.04
2022-12-04T14:00:42.741Z,87.44
2022-12-04T14:03:29.854Z,87.67
2022-12-04T14:06:05.179Z,88.36
2022-12-04T14:08:40.545Z,88.29
2022-12-04T14:11:14.170Z,89.17
2022-12-04T14:13:49.552Z,90.28
2022-12-04T14:17:00.381Z,90.42
2022-12-04T14:19:36.747Z,90.82
2022-12-04T14:22:04.286Z,89.61
2022-12-04T14:24:44.980Z,88.97
2022-12-04T14:27:44.041Z,88.82
2022-12-04T14:30:21.601Z,89.16
2022-12-04T14:32:51.024Z,88.65
2022-12-04T14:35:23.199Z,89.08
2022-12-04T14:38:02.071Z,89.21
2022-12-04T14:40:37.899Z,89.26
2022-12-04T14:43:06.110Z,89.53
2022-12-04T14:45:38.661Z,89.24
2022-12-04T14:48:24.674Z,89.42
2022-12-04T14:51:28.295Z,88.99
2022-12-04T14:54:25.171Z,89.69
2022-12-04T14:57:30.859Z,89.47
2022-12-04T15:00:10.621Z,89.27
2022-12-04T15:02:46.796Z,88.78
2022-12-04T15:05:24.731Z,89.00
2022-12-04T15:07:57.270Z,88.88
2022-12-04T15:10:48.450Z,89.52
2022-12-04T15:13:42.030Z,89.70
2022-12-04T15:16:20.677Z,89.46
2022-12-04T15:18:59.240Z,90.26
2022-12-04T15:21:41.275Z,90.50
2022-12-04T15:24:20.669Z,90.58
2022-12-04T15:26:50.212Z,91.02
2022-12-04T15:29:29.862Z,90.63
2022-12-04T15:32:03.619Z,90.58
2022-12-04T15:34:41.924Z,90.35
2022-12-04T15:37:19.708Z,90.36
2022-12-04T15:39:49.910Z,89.93
2022-12-04T15:42:22.280Z,90.04
2022-12-04T15:45:03.348Z,90.18
2022-12-04T15:47:33.329Z,90.31
2022-12-04T15:50:17.951Z,90.19
2022-12-04T15:53:16.430Z,91.11
2022-12-04T15:55:51.754Z,91.55
2022-12-04T15:58:27.638Z,91.57
2022-12-04T16:01:07.715Z,91.88
2022-12-04T16:03:46.178Z,91.39
2022-12-04T16:06:13.579Z,91.38
2022-12-04T16:08:42.533Z,91.74
2022-12-04T16:11:22.132Z,91.14
2022-12-04T16:14:01.725Z,91.29
2022-12-04T16:16:30.045Z,91.63
2022-12-04T16:18:57.819Z,91.40
2022-12-04T16:21:30.840Z,91.42
2022-12-04T16:24:03.008Z,91.52
2022-12-04T16:26:30.608Z,91.17
2022-12-04T16:28:59.406Z,91.44
2022-12-04T16:31:27.466Z,91.23
2022-12-04T16:33:54.708Z,90.89
2022-12-04T16:36:22.217Z,90.92
2022-12-04T16:38:51.014Z,90.65
2022-12-04T16:44:02.150Z,91.16
2022-12-04T16:46:38.476Z,90.88
2022-12-04T16:49:07.618Z,90.99
2022-12-04T16:51:37.536Z,90.91
2022-12-04T16:54:04.572Z,91.02
2022-12-04T16:56:31.904Z,90.77
2022-12-04T16:58:58.879Z,91.93
2022-12-04T17:01:32.269Z,92.11
2022-12-04T17:04:08.393Z,92.91
2022-12-04T17:06:53.481Z,92.61
2022-12-04T17:09:20.850Z,92.27
2022-12-04T17:11:47.971Z,92.22
2022-12-04T17:14:16.063Z,92.42
2022-12-04T17:16:45.105Z,92.21
2022-12-04T17:19:14.028Z,92.45
2022-12-04T17:21:41.820Z,91.97
2022-12-04T17:24:09.397Z,92.10
2022-12-04T17:26:38.515Z,92.47
2022-12-04T17:29:07.197Z,92.43
2022-12-04T17:31:37.669Z,92.72
2022-12-04T17:34:08.706Z,92.87
2022-12-04T17:36:35.694Z,92.43
2022-12-04T17:39:03.899Z,92.41
2022-12-04T17:41:31.124Z,92.55
2022-12-04T17:43:59.685Z,92.28
2022-12-04T17:46:27.254Z,92.00
2022-12-04T17:49:01.557Z,92.12
2022-12-04T17:51:31.193Z,92.36
2022-12-04T17:53:59.650Z,92.33
2022-12-04T17:56:27.602Z,91.80
2022-12-04T17:58:57.190Z,92.19
2022-12-04T18:01:27.407Z,92.15
2022-12-04T18:03:58.264Z,92.60
2022-12-04T18:06:30.599Z,92.81
2022-12-04T18:09:00.014Z,92.81
2022-12-04T18:11:30.704Z,92.73
2022-12-04T18:14:00.550Z,92.57
2022-12-04T18:16:29.836Z,93.72
2022-12-04T18:18:59.421Z,93.60
2022-12-04T18:21:31.311Z,93.28
2022-12-04T18:26:48.258Z,92.62
2022-12-04T18:29:19.953Z,92.32
2022-12-04T18:37:53.613Z,91.86
2022-12-04T18:40:26.094Z,92.21
2022-12-04T18:43:01.678Z,92.04
2022-12-04T18:45:29.749Z,91.74
2022-12-04T18:47:57.860Z,91.72
2022-12-04T18:50:29.751Z,91.93
2022-12-04T18:53:02.991Z,91.67
2022-12-04T18:55:34.673Z,91.84
2022-12-04T18:58:01.953Z,91.75
2022-12-04T19:00:32.615Z,92.02
2022-12-04T19:03:00.082Z,92.10
2022-12-04T19:05:34.376Z,92.70
2022-12-04T19:08:02.897Z,92.53
2022-12-04T19:10:32.583Z,93.00
2022-12-04T19:15:50.889Z,92.43
2022-12-04T19:18:19.608Z,92.43
2022-12-04T19:24:19.349Z,93.71
2022-12-04T19:26:49.735Z,93.24
2022-12-04T19:29:17.894Z,93.43
2022-12-04T19:31:45.674Z,93.37
2022-12-04T19:34:14.517Z,93.33
2022-12-04T19:36:42.864Z,93.32
2022-12-04T19:39:12.521Z,93.10
2022-12-04T19:41:41.485Z,92.77
2022-12-04T19:44:40.160Z,93.17
2022-12-04T19:46:58.760Z,92.58
2022-12-04T19:49:28.544Z,93.28
2022-12-04T19:51:55.983Z,93.34
2022-12-04T19:54:23.919Z,93.06
2022-12-04T19:59:37.705Z,93.03
2022-12-04T20:02:10.788Z,93.09
2022-12-04T20:04:39.135Z,93.10
2022-12-04T20:07:09.141Z,92.93
2022-12-04T20:09:40.328Z,93.23
2022-12-04T20:12:08.520Z,92.97
2022-12-04T20:14:35.625Z,93.52
2022-12-04T20:17:05.819Z,93.34
2022-12-04T20:19:33.020Z,93.37
2022-12-04T20:22:06.249Z,93.55
2022-12-04T20:24:33.503Z,93.71
2022-12-04T20:27:03.967Z,93.41
2022-12-04T20:29:30.975Z,93.13
2022-12-04T20:31:58.740Z,93.70
2022-12-04T20:34:25.900Z,94.26
2022-12-04T20:36:53.455Z,94.40
2022-12-04T20:39:21.109Z,94.50
2022-12-04T20:44:57.192Z,94.24
2022-12-04T20:47:26.200Z,94.12
2022-12-04T20:49:53.194Z,93.69
2022-12-04T20:52:20.789Z,93.80
2022-12-04T20:54:47.908Z,93.75
2022-12-04T20:57:15.807Z,93.83
2022-12-04T20:59:42.989Z,93.63
2022-12-04T21:02:11.543Z,93.23
2022-12-04T21:04:39.116Z,93.44
2022-12-04T21:07:07.801Z,93.55
2022-12-04T21:09:37.003Z,93.18
2022-12-04T21:12:24.893Z,93.29
2022-12-04T21:15:11.488Z,93.14
2022-12-04T21:17:40.422Z,93.77
2022-12-04T21:20:09.563Z,93.45
2022-12-04T21:22:37.103Z,93.58
2022-12-04T21:25:05.781Z,93.02
2022-12-04T21:27:34.956Z,93.12
2022-12-04T21:30:02.384Z,92.31
2022-12-04T21:32:29.866Z,91.91
2022-12-04T21:34:58.143Z,92.13
2022-12-04T21:37:26.157Z,92.40
2022-12-04T21:39:54.913Z,91.92
2022-12-04T21:42:31.325Z,91.75
2022-12-04T21:45:01.403Z,91.21
2022-12-04T21:47:29.661Z,90.65
2022-12-04T21:49:57.147Z,90.55
2022-12-04T21:52:25.002Z,90.13
2022-12-04T21:54:53.836Z,90.31
2022-12-04T21:57:22.157Z,89.91
2022-12-04T21:59:53.121Z,90.35
2022-12-04T22:02:21.020Z,89.94
2022-12-04T22:04:48.544Z,89.49
2022-12-04T22:07:16.653Z,89.63
2022-12-04T22:09:48.005Z,89.05
2022-12-04T22:12:41.192Z,88.23
2022-12-04T22:15:04.383Z,88.62
2022-12-04T22:17:33.742Z,87.67
2022-12-04T22:20:01.353Z,88.01
2022-12-04T22:22:31.978Z,87.66
2022-12-04T22:25:01.472Z,87.08
2022-12-04T22:27:29.139Z,87.00
2022-12-04T22:29:56.522Z,86.55
2022-12-04T22:32:23.940Z,86.08
2022-12-04T22:34:50.938Z,85.44
2022-12-04T22:37:18.255Z,85.37
2022-12-04T22:39:45.267Z,84.62
2022-12-04T22:42:12.562Z,84.65
2022-12-04T22:44:39.593Z,84.13
2022-12-04T22:47:07.341Z,84.28
2022-12-04T22:49:34.414Z,83.37
2022-12-04T22:52:02.544Z,83.46
2022-12-04T22:54:31.079Z,84.42
2022-12-04T22:56:59.328Z,84.06
2022-12-04T22:59:27.006Z,84.01
2022-12-04T23:01:54.760Z,83.78
2022-12-04T23:04:21.773Z,83.04
2022-12-04T23:06:49.177Z,83.10
2022-12-04T23:09:17.518Z,82.30
2022-12-04T23:11:45.627Z,82.93
2022-12-04T23:14:17.434Z,82.52
2022-12-04T23:16:45.378Z,82.36
2022-12-04T23:19:15.460Z,82.48
2022-12-04T23:21:43.657Z,82.82
2022-12-04T23:24:11.601Z,83.25
2022-12-04T23:26:47.164Z,82.79
2022-12-04T23:29:44.780Z,82.31
2022-12-04T23:32:08.723Z,82.64
2022-12-04T23:34:35.665Z,82.91
2022-12-04T23:37:03.567Z,82.60
2022-12-04T23:39:30.742Z,82.39
2022-12-04T23:41:59.404Z,82.37
2022-12-04T23:44:26.368Z,82.34
2022-12-04T23:46:55.044Z,82.22
2022-12-04T23:49:22.278Z,82.23
2022-12-04T23:51:49.607Z,81.96
2022-12-04T23:54:16.714Z,82.28
2022-12-04T23:56:44.155Z,81.91
2022-12-04T23:59:11.148Z,82.73
